createdAt,value
2023-10-06T00:02:20.840Z,2.90
2023-10-06T00:04:47.612Z,3.13
2023-10-06T00:07:15.750Z,2.90
2023-10-06T00:09:44.817Z,3.30
2023-10-06T00:12:14.301Z,3.33
2023-10-06T00:14:41.762Z,2.67
2023-10-06T00:17:18.638Z,3.35
2023-10-06T00:19:46.688Z,3.40
2023-10-06T00:22:16.209Z,3.40
2023-10-06T00:24:45.642Z,3.10
2023-10-06T00:27:12.401Z,3.25
2023-10-06T00:29:39.751Z,3.47
2023-10-06T00:32:25.478Z,3.28
2023-10-06T00:35:09.232Z,3.15
2023-10-06T00:37:40.118Z,3.35
2023-10-06T00:40:20.137Z,3.67
2023-10-06T00:43:02.279Z,3.45
2023-10-06T00:45:31.633Z,2.75
2023-10-06T00:47:58.377Z,3.78
2023-10-06T00:50:25.927Z,3.58
2023-10-06T00:52:53.171Z,3.40
2023-10-06T00:55:21.198Z,4.28
2023-10-06T00:57:54.463Z,3.20
2023-10-06T01:00:22.106Z,3.35
2023-10-06T01:02:50.095Z,3.90
2023-10-06T01:05:17.658Z,3.38
2023-10-06T01:07:47.949Z,3.70
2023-10-06T01:10:35.606Z,3.50
2023-10-06T01:13:13.492Z,3.78
2023-10-06T01:15:51.010Z,4.05
2023-10-06T01:18:22.052Z,3.55
2023-10-06T01:20:49.492Z,3.35
2023-10-06T01:23:23.109Z,4.22
2023-10-06T01:26:00.805Z,4.47
2023-10-06T01:28:27.933Z,3.95
2023-10-06T01:30:54.408Z,4.35
2023-10-06T01:33:20.910Z,4.00
2023-10-06T01:35:47.310Z,3.97
2023-10-06T01:38:23.975Z,4.15
2023-10-06T01:40:53.864Z,4.20
2023-10-06T01:43:24.064Z,3.88
2023-10-06T01:45:51.805Z,4.10
2023-10-06T01:48:21.052Z,3.63
2023-10-06T01:50:49.944Z,4.18
2023-10-06T01:53:20.200Z,3.63
2023-10-06T01:55:52.287Z,3.67
2023-10-06T01:58:18.888Z,3.92
2023-10-06T02:00:51.582Z,3.45
2023-10-06T02:03:19.238Z,4.00
2023-10-06T02:05:45.967Z,4.45
2023-10-06T02:08:22.360Z,4.47
2023-10-06T02:10:49.262Z,3.58
2023-10-06T02:13:22.711Z,4.53
2023-10-06T02:16:04.448Z,3.53
2023-10-06T02:18:37.567Z,3.97
2023-10-06T02:21:12.772Z,5.05
2023-10-06T02:23:41.343Z,3.60
2023-10-06T02:26:09.795Z,3.65
2023-10-06T02:28:41.632Z,3.47
2023-10-06T02:31:08.404Z,3.65
2023-10-06T02:33:37.385Z,3.47
2023-10-06T02:36:16.756Z,3.53
2023-10-06T02:38:48.138Z,3.58
2023-10-06T02:41:20.080Z,5.40
2023-10-06T02:43:51.525Z,3.50
2023-10-06T02:46:24.296Z,4.00
2023-10-06T02:48:51.356Z,4.10
2023-10-06T02:51:31.223Z,4.03
2023-10-06T02:54:13.893Z,4.05
2023-10-06T02:56:41.970Z,3.25
2023-10-06T02:59:25.842Z,3.80
2023-10-06T03:01:57.056Z,3.45
2023-10-06T03:04:27.643Z,3.45
2023-10-06T03:06:59.330Z,3.22
2023-10-06T03:09:29.177Z,3.33
2023-10-06T03:11:59.586Z,3.40
2023-10-06T03:14:38.668Z,3.25
2023-10-06T03:17:09.969Z,3.45
2023-10-06T03:19:41.703Z,3.67
2023-10-06T03:22:11.037Z,3.58
2023-10-06T03:24:46.151Z,3.40
2023-10-06T03:27:15.316Z,4.35
2023-10-06T03:29:54.896Z,4.00
2023-10-06T03:32:34.349Z,3.72
2023-10-06T03:35:12.924Z,3.50
2023-10-06T03:37:53.147Z,3.42
2023-10-06T03:40:35.297Z,3.60
2023-10-06T03:43:06.370Z,3.40
2023-10-06T03:45:33.579Z,3.65
2023-10-06T03:48:12.232Z,3.83
2023-10-06T03:50:44.750Z,3.53
2023-10-06T03:53:13.926Z,3.88
2023-10-06T03:55:42.052Z,4.22
2023-10-06T03:58:10.915Z,3.72
2023-10-06T04:00:41.485Z,3.50
2023-10-06T04:03:14.967Z,3.28
2023-10-06T04:05:49.927Z,3.17
2023-10-06T04:08:24.483Z,4.07
2023-10-06T04:10:54.488Z,3.78
2023-10-06T04:13:21.848Z,3.53
2023-10-06T04:15:51.811Z,3.17
2023-10-06T04:18:25.136Z,3.22
2023-10-06T04:20:55.710Z,3.25
2023-10-06T04:23:25.612Z,3.75
2023-10-06T04:25:58.480Z,3.80
2023-10-06T04:28:29.374Z,4.15
2023-10-06T04:30:59.797Z,3.45
2023-10-06T04:33:26.976Z,4.03
2023-10-06T04:35:56.642Z,3.95
2023-10-06T04:38:28.802Z,3.78
2023-10-06T04:40:57.819Z,4.10
2023-10-06T04:43:25.182Z,3.75
2023-10-06T04:45:51.794Z,3.83
2023-10-06T04:48:22.226Z,3.45
2023-10-06T04:50:51.850Z,4.03
2023-10-06T04:53:18.781Z,3.97
2023-10-06T04:55:45.368Z,4.68
2023-10-06T04:58:16.364Z,3.78
2023-10-06T05:00:43.354Z,3.63
2023-10-06T05:03:12.302Z,3.90
2023-10-06T05:05:39.725Z,3.58
2023-10-06T05:08:10.488Z,3.72
2023-10-06T05:10:41.254Z,4.10
2023-10-06T05:13:11.806Z,3.65
2023-10-06T05:15:42.105Z,3.95
2023-10-06T05:18:08.944Z,3.38
2023-10-06T05:20:36.513Z,3.55
2023-10-06T05:23:08.597Z,3.78
2023-10-06T05:25:35.340Z,3.80
2023-10-06T05:28:02.116Z,3.75
2023-10-06T05:30:29.250Z,4.90
2023-10-06T05:32:59.438Z,3.53
2023-10-06T05:35:27.261Z,3.95
2023-10-06T05:37:54.372Z,3.47
2023-10-06T05:40:23.987Z,3.63
2023-10-06T05:42:50.735Z,3.92
2023-10-06T05:45:19.665Z,3.47
2023-10-06T05:47:48.159Z,4.32
2023-10-06T05:50:28.412Z,3.92
2023-10-06T05:53:00.526Z,4.20
2023-10-06T05:55:31.659Z,3.45
2023-10-06T05:58:01.324Z,3.53
2023-10-06T06:00:32.246Z,3.50
2023-10-06T06:03:00.478Z,3.67
2023-10-06T06:05:30.900Z,3.80
2023-10-06T06:08:00.286Z,3.83
2023-10-06T06:10:32.664Z,3.97
2023-10-06T06:13:01.185Z,3.40
2023-10-06T06:15:28.374Z,3.90
2023-10-06T06:17:55.340Z,3.80
2023-10-06T06:20:25.152Z,3.53
2023-10-06T06:22:54.615Z,3.55
2023-10-06T06:25:22.948Z,3.63
2023-10-06T06:27:50.682Z,3.92
2023-10-06T06:30:19.708Z,3.53
2023-10-06T06:32:52.142Z,3.80
2023-10-06T06:35:20.542Z,3.33
2023-10-06T06:37:52.279Z,3.88
2023-10-06T06:40:20.845Z,3.88
2023-10-06T06:42:49.024Z,3.50
2023-10-06T06:45:16.422Z,4.40
2023-10-06T06:47:45.787Z,4.07
2023-10-06T06:50:18.227Z,3.67
2023-10-06T06:52:46.050Z,3.90
2023-10-06T06:55:15.730Z,4.10
2023-10-06T06:57:50.754Z,3.38
2023-10-06T07:00:26.039Z,3.70
2023-10-06T07:02:53.989Z,4.03
2023-10-06T07:05:22.741Z,3.47
2023-10-06T07:07:54.136Z,3.97
2023-10-06T07:10:23.661Z,3.80
2023-10-06T07:12:51.797Z,3.55
2023-10-06T07:15:19.866Z,3.65
2023-10-06T07:17:52.057Z,3.70
2023-10-06T07:20:20.712Z,4.35
2023-10-06T07:22:48.513Z,4.05
2023-10-06T07:25:19.524Z,3.75
2023-10-06T07:27:50.443Z,4.00
2023-10-06T07:30:17.727Z,3.53
2023-10-06T07:32:45.373Z,4.05
2023-10-06T07:35:16.591Z,3.65
2023-10-06T07:37:46.235Z,3.95
2023-10-06T07:40:14.798Z,3.35
2023-10-06T07:42:51.031Z,3.97
2023-10-06T07:45:18.960Z,4.22
2023-10-06T07:47:46.240Z,3.60
2023-10-06T07:50:14.519Z,3.65
2023-10-06T07:52:45.499Z,3.85
2023-10-06T07:55:12.634Z,4.13
2023-10-06T07:57:43.863Z,3.47
2023-10-06T08:00:13.075Z,3.80
2023-10-06T08:02:40.716Z,3.72
2023-10-06T08:05:14.821Z,4.10
2023-10-06T08:07:43.854Z,3.40
2023-10-06T08:10:17.415Z,3.55
2023-10-06T08:12:45.689Z,3.72
2023-10-06T08:15:18.193Z,3.92
2023-10-06T08:17:51.588Z,3.42
2023-10-06T08:20:18.767Z,3.50
2023-10-06T08:22:47.708Z,3.50
2023-10-06T08:25:19.544Z,3.55
2023-10-06T08:27:47.560Z,4.35
2023-10-06T08:30:18.317Z,3.67
2023-10-06T08:32:46.153Z,2.97
2023-10-06T08:35:16.826Z,3.55
2023-10-06T08:37:47.821Z,3.67
2023-10-06T08:40:18.399Z,3.20
2023-10-06T08:42:55.099Z,3.50
2023-10-06T08:45:25.952Z,3.10
2023-10-06T08:48:03.219Z,3.22
2023-10-06T08:50:33.223Z,4.30
2023-10-06T08:53:02.362Z,3.35
2023-10-06T08:55:29.994Z,3.05
2023-10-06T08:58:01.817Z,2.85
2023-10-06T09:00:32.950Z,2.83
2023-10-06T09:03:09.167Z,2.60
2023-10-06T09:05:39.934Z,3.00
2023-10-06T09:08:08.606Z,3.10
2023-10-06T09:10:41.618Z,3.22
2023-10-06T09:13:13.158Z,4.32
2023-10-06T09:15:41.963Z,2.78
2023-10-06T09:18:19.326Z,2.80
2023-10-06T09:20:46.649Z,3.53
2023-10-06T09:23:15.116Z,2.70
2023-10-06T09:25:45.232Z,2.30
2023-10-06T09:28:15.117Z,2.65
2023-10-06T09:30:51.527Z,2.90
2023-10-06T09:33:18.738Z,2.60
2023-10-06T09:35:45.280Z,3.05
2023-10-06T09:38:15.095Z,2.58
2023-10-06T09:40:43.537Z,2.60
2023-10-06T09:43:13.489Z,2.97
2023-10-06T09:45:41.984Z,2.22
2023-10-06T09:48:15.033Z,2.63
2023-10-06T09:50:43.921Z,2.42
2023-10-06T09:53:13.621Z,2.25
2023-10-06T09:55:43.903Z,2.08
2023-10-06T09:58:10.579Z,2.53
2023-10-06T10:00:43.498Z,2.28
2023-10-06T10:03:14.412Z,2.17
2023-10-06T10:05:43.167Z,2.20
2023-10-06T10:08:09.744Z,2.03
2023-10-06T10:10:41.078Z,2.40
2023-10-06T10:13:32.938Z,2.28
2023-10-06T10:16:27.203Z,2.60
2023-10-06T10:19:01.088Z,2.20
2023-10-06T10:21:28.921Z,1.73
2023-10-06T10:24:22.808Z,2.47
2023-10-06T10:26:48.917Z,2.47
2023-10-06T10:29:18.018Z,2.13
2023-10-06T10:32:01.648Z,2.10
2023-10-06T10:34:35.051Z,2.30
2023-10-06T10:37:07.317Z,2.00
2023-10-06T10:39:53.404Z,2.63
2023-10-06T10:42:37.371Z,1.83
2023-10-06T10:45:37.979Z,2.57
2023-10-06T10:48:08.084Z,2.28
2023-10-06T10:51:04.215Z,2.53
2023-10-06T10:53:42.350Z,2.95
2023-10-06T10:56:14.572Z,2.50
2023-10-06T10:58:45.141Z,2.47
2023-10-06T11:01:34.654Z,2.40
2023-10-06T11:04:14.112Z,2.20
2023-10-06T11:06:41.489Z,2.08
2023-10-06T11:09:30.788Z,2.47
2023-10-06T11:12:20.303Z,2.55
2023-10-06T11:14:47.379Z,2.22
2023-10-06T11:17:14.117Z,2.10
2023-10-06T11:19:41.493Z,2.00
2023-10-06T11:22:23.943Z,2.53
2023-10-06T11:24:52.114Z,2.13
2023-10-06T11:27:24.559Z,2.35
2023-10-06T11:29:58.215Z,2.30
2023-10-06T11:32:25.448Z,2.10
2023-10-06T11:34:52.214Z,2.05
2023-10-06T11:37:21.882Z,2.15
2023-10-06T11:39:52.252Z,2.90
2023-10-06T11:42:25.479Z,1.92
2023-10-06T11:44:56.124Z,2.22
2023-10-06T11:47:28.713Z,2.15
2023-10-06T11:50:01.298Z,1.83
2023-10-06T11:52:28.520Z,2.42
2023-10-06T11:54:57.485Z,2.38
2023-10-06T11:57:42.936Z,2.15
2023-10-06T12:00:13.433Z,1.90
2023-10-06T12:02:54.708Z,2.30
2023-10-06T12:05:25.673Z,2.17
2023-10-06T12:07:52.305Z,2.22
2023-10-06T12:10:22.386Z,1.95
2023-10-06T12:12:51.775Z,2.42
2023-10-06T12:15:18.519Z,2.45
2023-10-06T12:17:46.279Z,2.00
2023-10-06T12:20:14.794Z,2.45
2023-10-06T12:22:43.787Z,2.38
2023-10-06T12:25:13.688Z,2.72
2023-10-06T12:27:44.719Z,2.35
2023-10-06T12:30:16.161Z,2.20
2023-10-06T12:32:48.656Z,2.67
2023-10-06T12:35:29.652Z,2.53
2023-10-06T12:37:56.506Z,2.50
2023-10-06T12:40:23.019Z,2.58
2023-10-06T12:42:49.525Z,2.38
2023-10-06T12:45:20.210Z,2.60
2023-10-06T12:47:48.788Z,2.33
2023-10-06T12:50:20.590Z,2.60
2023-10-06T12:52:54.689Z,2.38
2023-10-06T12:55:30.003Z,2.28
2023-10-06T12:57:57.650Z,2.30
2023-10-06T13:00:24.076Z,2.47
2023-10-06T13:02:50.967Z,2.15
2023-10-06T13:05:18.484Z,2.60
2023-10-06T13:07:47.425Z,2.60
2023-10-06T13:10:17.912Z,2.35
2023-10-06T13:12:44.848Z,2.58
2023-10-06T13:15:18.721Z,2.50
2023-10-06T13:17:47.174Z,2.35
2023-10-06T13:20:17.414Z,2.50
2023-10-06T13:22:46.002Z,2.17
2023-10-06T13:25:13.388Z,2.55
2023-10-06T13:27:43.313Z,2.53
2023-10-06T13:30:21.154Z,2.65
2023-10-06T13:32:52.933Z,2.22
2023-10-06T13:35:21.590Z,2.42
2023-10-06T13:37:49.591Z,2.42
2023-10-06T13:40:18.364Z,2.58
2023-10-06T13:42:47.578Z,2.65
2023-10-06T13:45:16.493Z,2.78
2023-10-06T13:47:44.112Z,2.75
2023-10-06T13:50:14.889Z,2.63
2023-10-06T13:52:42.738Z,2.50
2023-10-06T13:55:11.492Z,2.40
2023-10-06T13:57:40.576Z,2.53
2023-10-06T14:00:12.770Z,2.70
2023-10-06T14:02:39.344Z,2.50
2023-10-06T14:05:06.290Z,2.50
2023-10-06T14:07:32.759Z,2.55
2023-10-06T14:09:59.405Z,2.50
2023-10-06T14:12:28.313Z,2.28
2023-10-06T14:14:54.743Z,2.30
2023-10-06T14:17:22.902Z,2.38
2023-10-06T14:19:51.724Z,2.67
2023-10-06T14:22:22.431Z,2.45
2023-10-06T14:24:49.762Z,2.22
2023-10-06T14:27:19.319Z,3.20
2023-10-06T14:29:46.188Z,2.30
2023-10-06T14:32:19.602Z,2.33
2023-10-06T14:34:59.600Z,2.65
2023-10-06T14:37:48.107Z,2.65
2023-10-06T14:40:33.184Z,2.83
2023-10-06T14:43:18.962Z,2.67
2023-10-06T14:46:00.671Z,2.40
2023-10-06T14:48:28.606Z,2.47
2023-10-06T14:50:59.407Z,2.70
2023-10-06T14:53:32.538Z,3.10
2023-10-06T14:55:59.243Z,2.47
2023-10-06T14:58:25.892Z,2.60
2023-10-06T15:00:52.316Z,2.80
2023-10-06T15:03:18.899Z,2.55
2023-10-06T15:05:46.700Z,2.30
2023-10-06T15:08:13.888Z,2.30
2023-10-06T15:10:41.887Z,2.47
2023-10-06T15:13:19.823Z,2.63
2023-10-06T15:15:47.989Z,4.30
2023-10-06T15:18:19.726Z,2.22
2023-10-06T15:20:48.695Z,2.78
2023-10-06T15:23:16.413Z,2.20
2023-10-06T15:25:43.293Z,2.70
2023-10-06T15:28:27.139Z,3.15
2023-10-06T15:31:00.411Z,2.33
2023-10-06T17:15:20.334Z,4.03
2023-10-06T17:17:47.101Z,3.40
2023-10-06T17:20:18.554Z,2.85
2023-10-06T17:22:45.959Z,3.50
2023-10-06T17:25:17.565Z,3.35
2023-10-06T17:27:45.223Z,2.67
2023-10-06T17:30:16.997Z,2.92
2023-10-06T17:32:46.378Z,2.75
2023-10-06T17:35:14.973Z,3.08
2023-10-06T17:37:42.982Z,2.80
2023-10-06T17:40:12.865Z,3.05
2023-10-06T17:42:49.369Z,3.00
2023-10-06T17:45:16.800Z,3.00
2023-10-06T17:47:46.779Z,2.90
2023-10-06T17:50:13.890Z,3.33
2023-10-06T17:52:41.023Z,2.70
2023-10-06T17:55:11.625Z,2.58
2023-10-06T17:57:38.311Z,2.88
2023-10-06T18:00:08.580Z,2.70
2023-10-06T18:02:35.180Z,2.58
2023-10-06T18:05:05.851Z,2.95
2023-10-06T18:07:32.621Z,3.03
2023-10-06T18:10:00.580Z,2.80
2023-10-06T18:12:29.544Z,3.13
2023-10-06T18:14:56.246Z,3.38
2023-10-06T18:17:22.795Z,3.63
2023-10-06T18:19:49.349Z,4.18
2023-10-06T18:22:16.089Z,3.50
2023-10-06T18:24:44.117Z,3.60
2023-10-06T18:27:10.922Z,3.42
2023-10-06T18:29:37.444Z,3.55
2023-10-06T18:32:04.207Z,3.35
2023-10-06T18:34:31.146Z,3.15
2023-10-06T18:36:59.063Z,4.20
2023-10-06T18:39:25.812Z,3.55
2023-10-06T18:41:52.385Z,3.10
2023-10-06T18:44:19.163Z,3.58
2023-10-06T18:46:47.316Z,4.18
2023-10-06T18:49:15.896Z,3.60
2023-10-06T18:51:42.700Z,3.50
2023-10-06T18:54:09.269Z,3.28
2023-10-06T18:56:37.053Z,3.80
2023-10-06T18:59:03.990Z,3.53
2023-10-06T19:01:31.120Z,3.10
2023-10-06T19:03:57.714Z,4.10
2023-10-06T19:06:25.874Z,3.58
2023-10-06T19:08:52.848Z,3.65
2023-10-06T19:11:20.532Z,3.28
2023-10-06T19:13:50.238Z,3.63
2023-10-06T19:16:17.924Z,4.18
2023-10-06T19:18:51.241Z,3.53
2023-10-06T19:21:21.664Z,3.42
2023-10-06T19:23:48.186Z,3.85
2023-10-06T19:26:17.686Z,3.55
2023-10-06T19:28:44.403Z,3.40
2023-10-06T19:31:11.340Z,3.90
2023-10-06T19:33:48.621Z,3.63
2023-10-06T19:36:15.500Z,3.72
2023-10-06T19:38:47.384Z,3.33
2023-10-06T19:41:15.832Z,3.38
2023-10-06T19:43:43.010Z,3.67
2023-10-06T19:46:11.252Z,3.10
2023-10-06T19:48:39.337Z,3.00
2023-10-06T19:51:10.108Z,2.92
2023-10-06T19:53:37.329Z,3.50
2023-10-06T19:56:04.720Z,3.28
2023-10-06T19:58:32.329Z,3.30
2023-10-06T20:00:59.636Z,3.50
2023-10-06T20:03:27.310Z,3.80
2023-10-06T20:05:56.856Z,3.60
2023-10-06T20:08:23.726Z,3.22
2023-10-06T20:10:54.411Z,4.18
2023-10-06T20:13:21.720Z,3.38
2023-10-06T20:15:49.108Z,3.88
2023-10-06T20:18:17.389Z,3.42
2023-10-06T20:20:44.647Z,3.53
2023-10-06T20:23:11.543Z,3.45
2023-10-06T20:25:38.223Z,3.42
2023-10-06T20:28:06.287Z,3.40
2023-10-06T20:30:32.886Z,3.67
2023-10-06T20:32:59.436Z,3.17
2023-10-06T20:35:29.324Z,3.30
2023-10-06T20:37:56.564Z,3.00
2023-10-06T20:40:26.243Z,2.95
2023-10-06T20:42:56.518Z,3.40
2023-10-06T20:45:32.480Z,3.50
2023-10-06T20:48:01.029Z,3.85
2023-10-06T20:50:28.938Z,3.53
2023-10-06T20:52:56.945Z,3.75
2023-10-06T20:55:26.743Z,3.65
2023-10-06T20:57:53.994Z,3.47
2023-10-06T21:00:24.659Z,3.40
2023-10-06T21:02:51.367Z,3.25
2023-10-06T21:05:18.447Z,3.15
2023-10-06T21:07:45.714Z,3.13
2023-10-06T21:10:14.354Z,3.58
2023-10-06T21:12:43.586Z,3.40
2023-10-06T21:15:12.023Z,3.50
2023-10-06T21:17:43.022Z,3.17
2023-10-06T21:20:13.360Z,3.38
2023-10-06T21:22:41.052Z,3.28
2023-10-06T21:25:14.713Z,3.40
2023-10-06T21:27:42.027Z,3.38
2023-10-06T21:30:09.086Z,3.50
2023-10-06T21:32:38.641Z,3.53
2023-10-06T21:35:06.822Z,3.33
2023-10-06T21:37:34.398Z,3.67
2023-10-06T21:40:02.143Z,3.53
2023-10-06T21:42:29.433Z,3.15
2023-10-06T21:44:56.043Z,3.45
2023-10-06T21:47:23.438Z,2.97
2023-10-06T21:49:50.349Z,3.40
2023-10-06T21:52:16.876Z,3.22
2023-10-06T21:54:44.168Z,3.08
2023-10-06T21:57:13.991Z,3.67
2023-10-06T21:59:42.335Z,3.35
2023-10-06T22:02:09.574Z,3.20
2023-10-06T22:04:36.309Z,3.47
2023-10-06T22:07:04.173Z,3.20
2023-10-06T22:09:30.998Z,3.55
2023-10-06T22:11:59.638Z,3.15
2023-10-06T22:14:28.319Z,3.03
2023-10-06T22:16:56.231Z,3.22
2023-10-06T22:19:22.972Z,3.42
2023-10-06T22:21:51.666Z,2.92
2023-10-06T22:24:18.209Z,3.00
2023-10-06T22:26:44.598Z,3.50
2023-10-06T22:29:12.927Z,3.20
2023-10-06T22:31:39.750Z,3.13
2023-10-06T22:34:06.280Z,3.42
2023-10-06T22:36:33.633Z,3.13
2023-10-06T22:39:00.127Z,3.33
2023-10-06T22:41:26.617Z,3.20
2023-10-06T22:43:53.923Z,3.67
2023-10-06T22:46:20.755Z,3.55
2023-10-06T22:48:48.048Z,3.58
2023-10-06T22:51:14.955Z,3.13
2023-10-06T22:53:41.364Z,3.20
2023-10-06T22:56:08.085Z,3.08
2023-10-06T22:58:34.670Z,3.40
2023-10-06T23:01:01.985Z,3.83
2023-10-06T23:03:30.699Z,3.90
2023-10-06T23:05:58.039Z,4.00
2023-10-06T23:08:25.610Z,3.83
2023-10-06T23:10:52.411Z,4.35
2023-10-06T23:13:18.966Z,3.78
2023-10-06T23:15:48.346Z,3.67
2023-10-06T23:18:18.178Z,3.10
2023-10-06T23:20:45.902Z,3.40
2023-10-06T23:23:12.418Z,3.65
2023-10-06T23:25:50.855Z,3.58
2023-10-06T23:28:18.169Z,3.15
2023-10-06T23:30:44.775Z,3.55
2023-10-06T23:33:12.354Z,3.40
2023-10-06T23:35:39.140Z,3.92
2023-10-06T23:38:12.169Z,3.53
2023-10-06T23:40:39.701Z,3.47
2023-10-06T23:43:13.067Z,3.67
2023-10-06T23:45:42.305Z,4.00
2023-10-06T23:48:12.989Z,3.88
2023-10-06T23:51:00.215Z,3.42
2023-10-06T23:53:29.921Z,3.38
2023-10-06T23:56:01.259Z,3.70
2023-10-06T23:58:33.439Z,3.45
